createdAt,value
2019-05-29T00:00:20.501Z,99238.00
2019-05-29T00:02:50.963Z,99235.00
2019-05-29T00:05:21.681Z,99237.00
2019-05-29T00:07:50.489Z,99244.00
2019-05-29T00:10:19.611Z,99242.00
2019-05-29T00:12:48.202Z,99250.00
2019-05-29T00:15:16.746Z,99252.00
2019-05-29T00:17:45.940Z,99249.00
2019-05-29T00:20:14.746Z,99253.00
2019-05-29T00:22:43.301Z,99252.00
2019-05-29T00:25:12.649Z,99257.00
2019-05-29T00:27:41.275Z,99257.00
2019-05-29T00:30:10.804Z,99254.00
2019-05-29T00:32:39.753Z,99260.00
2019-05-29T00:35:08.465Z,99253.00
2019-05-29T00:37:39.663Z,99250.00
2019-05-29T00:40:09.027Z,99251.00
2019-05-29T00:42:37.726Z,99260.00
2019-05-29T00:45:07.355Z,99254.00
2019-05-29T00:47:35.963Z,99245.00
2019-05-29T00:50:06.354Z,99247.00
2019-05-29T00:52:34.912Z,99245.00
2019-05-29T00:55:03.664Z,99252.00
2019-05-29T00:57:32.238Z,99261.00
2019-05-29T01:00:02.943Z,99263.00
2019-05-29T01:02:30.885Z,99272.00
2019-05-29T01:05:02.264Z,99264.00
2019-05-29T01:07:33.143Z,99272.00
2019-05-29T01:10:02.512Z,99270.00
2019-05-29T01:12:31.147Z,99268.00
2019-05-29T01:15:00.137Z,99271.00
2019-05-29T01:17:30.326Z,99272.00
2019-05-29T01:20:01.955Z,99271.00
2019-05-29T01:22:30.559Z,99284.00
2019-05-29T01:24:58.920Z,99278.00
2019-05-29T01:27:27.816Z,99278.00
2019-05-29T01:29:56.195Z,99295.00
2019-05-29T01:32:24.894Z,99293.00
2019-05-29T01:34:53.648Z,99287.00
2019-05-29T01:37:22.822Z,99294.00
2019-05-29T01:39:51.294Z,99299.00
2019-05-29T01:42:19.953Z,99295.00
2019-05-29T01:44:48.751Z,99294.00
2019-05-29T01:47:17.455Z,99305.00
2019-05-29T01:49:46.342Z,99307.00
2019-05-29T01:52:17.582Z,99319.00
2019-05-29T01:54:46.230Z,99320.00
2019-05-29T01:57:15.749Z,99321.00
2019-05-29T01:59:44.199Z,99331.00
2019-05-29T02:02:12.674Z,99328.00
2019-05-29T02:04:41.314Z,99330.00
2019-05-29T02:07:12.060Z,99329.00
2019-05-29T02:09:42.726Z,99338.00
2019-05-29T02:12:11.310Z,99344.00
2019-05-29T02:14:39.756Z,99347.00
2019-05-29T02:17:09.087Z,99355.00
2019-05-29T02:19:37.979Z,99363.00
2019-05-29T02:22:06.831Z,99364.00
2019-05-29T02:24:35.355Z,99370.00
2019-05-29T02:27:04.638Z,99368.00
2019-05-29T02:29:33.960Z,99378.00
2019-05-29T02:32:02.272Z,99373.00
2019-05-29T02:34:30.766Z,99371.00
2019-05-29T02:36:59.740Z,99376.00
2019-05-29T02:39:29.398Z,99382.00
2019-05-29T02:41:58.629Z,99391.00
2019-05-29T02:44:27.632Z,99388.00
2019-05-29T02:46:56.618Z,99380.00
2019-05-29T02:49:25.835Z,99383.00
2019-05-29T02:51:54.602Z,99385.00
2019-05-29T02:54:24.934Z,99392.00
2019-05-29T02:56:54.447Z,99397.00
2019-05-29T02:59:25.501Z,99407.00
2019-05-29T03:01:54.297Z,99403.00
2019-05-29T03:04:24.048Z,99408.00
2019-05-29T03:06:53.968Z,99405.00
2019-05-29T03:09:26.476Z,99413.00
2019-05-29T03:12:00.050Z,99417.00
2019-05-29T03:14:29.486Z,99415.00
2019-05-29T03:16:58.693Z,99421.00
2019-05-29T03:19:28.024Z,99418.00
2019-05-29T03:21:56.991Z,99418.00
2019-05-29T03:24:26.674Z,99433.00
2019-05-29T03:26:55.593Z,99432.00
2019-05-29T03:29:25.930Z,99437.00
2019-05-29T03:31:55.088Z,99445.00
2019-05-29T03:34:23.759Z,99459.00
2019-05-29T03:36:52.258Z,99467.00
2019-05-29T03:39:20.859Z,99472.00
2019-05-29T03:41:49.515Z,99478.00
2019-05-29T03:44:18.028Z,99484.00
2019-05-29T03:46:46.956Z,99506.00
2019-05-29T03:49:15.892Z,99510.00
2019-05-29T03:51:44.807Z,99519.00
2019-05-29T03:54:13.622Z,99524.00
2019-05-29T03:56:43.326Z,99532.00
2019-05-29T03:59:11.899Z,99534.00
2019-05-29T04:01:40.685Z,99548.00
2019-05-29T04:04:09.280Z,99549.00
2019-05-29T04:06:38.273Z,99552.00
2019-05-29T04:09:07.272Z,99564.00
2019-05-29T04:11:38.440Z,99571.00
2019-05-29T04:14:08.929Z,99567.00
2019-05-29T04:16:58.244Z,99592.00
2019-05-29T04:19:12.629Z,99592.00
2019-05-29T04:21:43.439Z,99597.00
2019-05-29T04:24:15.244Z,99611.00
2019-05-29T04:26:47.111Z,99601.00
2019-05-29T04:29:16.409Z,99594.00
2019-05-29T04:31:45.078Z,99605.00
2019-05-29T04:34:13.999Z,99606.00
2019-05-29T04:36:42.776Z,99613.00
2019-05-29T04:39:11.194Z,99617.00
2019-05-29T04:41:40.022Z,99621.00
2019-05-29T04:44:08.865Z,99627.00
2019-05-29T04:46:38.396Z,99627.00
2019-05-29T04:49:08.353Z,99634.00
2019-05-29T04:51:37.397Z,99644.00
2019-05-29T04:54:06.351Z,99643.00
2019-05-29T04:56:35.022Z,99662.00
2019-05-29T04:59:04.637Z,99665.00
2019-05-29T05:01:33.305Z,99671.00
2019-05-29T05:04:02.048Z,99672.00
2019-05-29T05:06:31.172Z,99679.00
2019-05-29T05:08:59.672Z,99675.00
2019-05-29T05:11:29.366Z,99694.00
2019-05-29T05:14:01.695Z,99693.00
2019-05-29T05:16:33.669Z,99701.00
2019-05-29T05:19:02.413Z,99702.00
2019-05-29T05:21:31.972Z,99711.00
2019-05-29T05:24:02.154Z,99716.00
2019-05-29T05:26:30.725Z,99728.00
2019-05-29T05:28:59.322Z,99733.00
2019-05-29T05:31:28.296Z,99735.00
2019-05-29T05:33:57.036Z,99734.00
2019-05-29T05:36:25.707Z,99743.00
2019-05-29T05:38:55.012Z,99744.00
2019-05-29T05:41:24.273Z,99759.00
2019-05-29T05:43:53.334Z,99748.00
2019-05-29T05:46:24.780Z,99756.00
2019-05-29T05:48:52.928Z,99759.00
2019-05-29T05:51:21.959Z,99766.00
2019-05-29T05:53:51.168Z,99771.00
2019-05-29T05:56:19.807Z,99773.00
2019-05-29T05:58:48.514Z,99791.00
2019-05-29T06:01:19.374Z,99788.00
2019-05-29T06:03:49.247Z,99797.00
2019-05-29T06:06:17.934Z,99796.00
2019-05-29T06:08:46.286Z,99800.00
2019-05-29T06:11:15.726Z,99801.00
2019-05-29T06:13:45.242Z,99801.00
2019-05-29T06:16:16.206Z,99799.00
2019-05-29T06:18:46.836Z,99798.00
2019-05-29T06:21:15.886Z,99804.00
2019-05-29T06:23:44.857Z,99810.00
2019-05-29T06:26:14.239Z,99825.00
2019-05-29T06:28:45.030Z,99822.00
2019-05-29T06:31:13.731Z,99826.00
2019-05-29T06:33:42.117Z,99841.00
2019-05-29T06:36:10.827Z,99839.00
2019-05-29T06:38:40.393Z,99847.00
2019-05-29T06:41:09.399Z,99845.00
2019-05-29T06:43:37.901Z,99859.00
2019-05-29T06:46:07.325Z,99861.00
2019-05-29T06:48:44.765Z,99864.00
2019-05-29T06:51:06.391Z,99859.00
2019-05-29T06:53:35.686Z,99868.00
2019-05-29T06:56:04.599Z,99875.00
2019-05-29T06:58:33.629Z,99876.00
2019-05-29T07:01:02.268Z,99880.00
2019-05-29T07:03:32.176Z,99886.00
2019-05-29T07:06:01.683Z,99889.00
2019-05-29T07:08:39.137Z,99892.00
2019-05-29T07:11:00.724Z,99894.00
2019-05-29T07:13:29.977Z,99899.00
2019-05-29T07:15:58.617Z,99904.00
2019-05-29T07:18:28.874Z,99911.00
2019-05-29T07:20:59.371Z,99912.00
2019-05-29T07:23:28.411Z,99915.00
2019-05-29T07:25:57.449Z,99927.00
2019-05-29T07:28:25.850Z,99937.00
2019-05-29T07:31:01.727Z,99942.00
2019-05-29T07:33:24.550Z,99941.00
2019-05-29T07:35:53.662Z,99946.00
2019-05-29T07:38:22.408Z,99953.00
2019-05-29T07:40:51.184Z,99953.00
2019-05-29T07:43:19.765Z,99961.00
2019-05-29T07:45:48.304Z,99963.00
2019-05-29T07:48:16.910Z,99966.00
2019-05-29T07:50:46.268Z,99968.00
2019-05-29T07:53:15.106Z,99968.00
2019-05-29T07:55:44.680Z,99965.00
2019-05-29T07:58:13.735Z,99979.00
2019-05-29T08:01:06.890Z,99986.00
2019-05-29T08:03:12.913Z,99985.00
2019-05-29T08:05:46.044Z,99986.00
2019-05-29T08:08:12.347Z,99995.00
2019-05-29T08:10:41.791Z,99996.00
2019-05-29T08:13:11.061Z,100003.00
2019-05-29T08:15:55.296Z,100011.00
2019-05-29T08:18:10.295Z,100018.00
2019-05-29T08:20:41.858Z,100019.00
2019-05-29T08:23:12.222Z,100023.00
2019-05-29T08:25:41.435Z,100028.00
2019-05-29T08:28:09.919Z,100032.00
2019-05-29T08:30:38.523Z,100025.00
2019-05-29T08:33:07.006Z,100032.00
2019-05-29T08:35:36.041Z,100038.00
2019-05-29T08:38:04.970Z,100037.00
2019-05-29T08:40:33.705Z,100041.00
2019-05-29T08:43:02.062Z,100042.00
2019-05-29T08:45:30.764Z,100045.00
2019-05-29T08:48:00.090Z,100052.00
2019-05-29T08:50:29.640Z,100050.00
2019-05-29T08:52:58.400Z,100061.00
2019-05-29T08:55:27.044Z,100061.00
2019-05-29T08:57:55.976Z,100066.00
2019-05-29T09:00:24.634Z,100078.00
2019-05-29T09:02:53.733Z,100067.00
2019-05-29T09:05:22.401Z,100081.00
2019-05-29T09:07:54.235Z,100080.00
2019-05-29T09:10:23.233Z,100084.00
2019-05-29T09:13:01.859Z,100084.00
2019-05-29T09:15:22.111Z,100095.00
2019-05-29T09:17:51.053Z,100102.00
2019-05-29T09:20:31.976Z,100104.00
2019-05-29T09:22:52.429Z,100104.00
2019-05-29T09:25:23.233Z,100115.00
2019-05-29T09:27:51.985Z,100118.00
2019-05-29T09:30:21.811Z,100125.00
2019-05-29T09:32:53.014Z,100124.00
2019-05-29T09:35:23.262Z,100133.00
2019-05-29T09:37:52.274Z,100139.00
2019-05-29T09:40:21.247Z,100139.00
2019-05-29T09:42:49.939Z,100134.00
2019-05-29T09:45:19.574Z,100144.00
2019-05-29T09:47:48.245Z,100136.00
2019-05-29T09:50:19.426Z,100149.00
2019-05-29T09:52:49.156Z,100151.00
2019-05-29T09:55:18.061Z,100155.00
2019-05-29T09:57:47.358Z,100150.00
2019-05-29T10:00:16.584Z,100161.00
2019-05-29T10:02:45.302Z,100170.00
2019-05-29T10:05:14.080Z,100178.00
2019-05-29T10:07:42.640Z,100186.00
2019-05-29T10:10:13.534Z,100185.00
2019-05-29T10:12:42.249Z,100181.00
2019-05-29T10:15:12.296Z,100192.00
2019-05-29T10:17:41.037Z,100200.00
2019-05-29T10:20:10.859Z,100203.00
2019-05-29T10:22:39.633Z,100209.00
2019-05-29T10:25:10.171Z,100210.00
2019-05-29T10:27:40.683Z,100208.00
2019-05-29T10:30:10.403Z,100217.00
2019-05-29T10:32:39.314Z,100216.00
2019-05-29T10:35:10.785Z,100217.00
2019-05-29T10:37:39.486Z,100216.00
2019-05-29T10:40:09.720Z,100225.00
2019-05-29T10:42:38.426Z,100220.00
2019-05-29T10:45:09.220Z,100231.00
2019-05-29T10:47:37.892Z,100226.00
2019-05-29T10:50:06.986Z,100230.00
2019-05-29T10:52:35.489Z,100226.00
2019-05-29T10:55:04.752Z,100226.00
2019-05-29T10:57:33.581Z,100224.00
2019-05-29T11:00:02.373Z,100231.00
2019-05-29T11:02:30.912Z,100236.00
2019-05-29T11:04:59.775Z,100234.00
2019-05-29T11:07:28.329Z,100239.00
2019-05-29T11:09:57.591Z,100240.00
2019-05-29T11:12:28.019Z,100243.00
2019-05-29T11:14:57.016Z,100245.00
2019-05-29T11:17:25.775Z,100244.00
2019-05-29T11:19:55.109Z,100248.00
2019-05-29T11:22:26.566Z,100251.00
2019-05-29T11:24:56.463Z,100258.00
2019-05-29T11:27:27.017Z,100264.00
2019-05-29T11:29:57.263Z,100268.00
2019-05-29T11:32:25.946Z,100267.00
2019-05-29T11:34:55.513Z,100276.00
2019-05-29T11:37:24.495Z,100269.00
2019-05-29T11:39:53.192Z,100271.00
2019-05-29T11:42:27.431Z,100270.00
2019-05-29T11:44:53.530Z,100266.00
2019-05-29T11:47:22.749Z,100278.00
2019-05-29T11:49:51.456Z,100280.00
2019-05-29T11:52:24.738Z,100280.00
2019-05-29T11:54:55.592Z,100282.00
2019-05-29T11:57:21.395Z,100287.00
2019-05-29T11:59:50.070Z,100288.00
2019-05-29T12:02:18.581Z,100294.00
2019-05-29T12:04:47.466Z,100289.00
2019-05-29T12:07:15.885Z,100290.00
2019-05-29T12:09:44.517Z,100288.00
2019-05-29T12:12:12.972Z,100297.00
2019-05-29T12:14:59.066Z,100310.00
2019-05-29T12:17:12.435Z,100303.00
2019-05-29T12:19:41.445Z,100309.00
2019-05-29T12:22:10.131Z,100307.00
2019-05-29T12:24:38.753Z,100305.00
2019-05-29T12:27:07.555Z,100314.00
2019-05-29T12:29:37.992Z,100325.00
2019-05-29T12:32:11.298Z,100320.00
2019-05-29T12:34:52.835Z,100326.00
2019-05-29T12:37:09.314Z,100332.00
2019-05-29T12:39:38.004Z,100330.00
2019-05-29T12:42:06.667Z,100321.00
2019-05-29T12:44:35.298Z,100336.00
2019-05-29T12:47:04.362Z,100335.00
2019-05-29T12:49:33.062Z,100344.00
2019-05-29T12:52:02.587Z,100345.00
2019-05-29T12:54:32.948Z,100342.00
2019-05-29T12:57:02.310Z,100343.00
2019-05-29T12:59:31.259Z,100338.00
2019-05-29T13:02:00.556Z,100351.00
2019-05-29T13:04:29.888Z,100348.00
2019-05-29T13:06:58.675Z,100350.00
2019-05-29T13:09:27.439Z,100353.00
2019-05-29T13:11:56.426Z,100351.00
2019-05-29T13:14:25.092Z,100354.00
2019-05-29T13:16:54.758Z,100356.00
2019-05-29T13:19:24.038Z,100361.00
2019-05-29T13:21:53.039Z,100348.00
2019-05-29T13:24:22.029Z,100359.00
2019-05-29T13:26:50.678Z,100362.00
2019-05-29T13:29:19.722Z,100359.00
2019-05-29T13:31:50.584Z,100361.00
2019-05-29T13:34:21.700Z,100361.00
2019-05-29T13:36:50.135Z,100360.00
2019-05-29T13:39:18.783Z,100356.00
2019-05-29T13:41:47.151Z,100355.00
2019-05-29T13:44:15.608Z,100374.00
2019-05-29T13:46:44.220Z,100369.00
2019-05-29T13:49:12.908Z,100383.00
2019-05-29T13:51:41.411Z,100371.00
2019-05-29T13:54:16.964Z,100371.00
2019-05-29T13:56:40.401Z,100369.00
2019-05-29T13:59:08.888Z,100376.00
2019-05-29T14:01:37.596Z,100377.00
2019-05-29T14:04:06.852Z,100380.00
2019-05-29T14:06:35.865Z,100372.00
2019-05-29T14:09:07.550Z,100386.00
2019-05-29T14:11:37.149Z,100385.00
2019-05-29T14:14:07.909Z,100383.00
2019-05-29T14:16:36.105Z,100381.00
2019-05-29T14:19:05.111Z,100373.00
2019-05-29T14:21:33.552Z,100382.00
2019-05-29T14:24:13.897Z,100384.00
2019-05-29T14:26:33.342Z,100381.00
2019-05-29T14:29:03.538Z,100380.00
2019-05-29T14:31:32.402Z,100377.00
2019-05-29T14:34:05.035Z,100385.00
2019-05-29T14:36:35.467Z,100388.00
2019-05-29T14:39:05.811Z,100390.00
2019-05-29T14:41:34.401Z,100395.00
2019-05-29T14:44:03.740Z,100397.00
2019-05-29T14:46:32.636Z,100398.00
2019-05-29T14:49:02.253Z,100410.00
2019-05-29T14:51:30.702Z,100404.00
2019-05-29T14:53:59.651Z,100419.00
2019-05-29T14:56:28.149Z,100409.00
2019-05-29T14:58:57.019Z,100418.00
2019-05-29T15:01:25.511Z,100412.00
2019-05-29T15:03:54.387Z,100419.00
2019-05-29T15:06:23.124Z,100418.00
2019-05-29T15:08:51.704Z,100422.00
2019-05-29T15:11:20.149Z,100416.00
2019-05-29T15:13:48.507Z,100424.00
2019-05-29T15:16:17.059Z,100425.00
2019-05-29T15:18:45.533Z,100428.00
2019-05-29T15:21:15.360Z,100433.00
2019-05-29T15:23:44.127Z,100430.00
2019-05-29T15:26:13.718Z,100440.00
2019-05-29T15:28:42.174Z,100440.00
2019-05-29T15:31:10.884Z,100438.00
2019-05-29T15:33:39.881Z,100441.00
2019-05-29T15:36:10.633Z,100448.00
2019-05-29T15:38:41.551Z,100446.00
2019-05-29T15:41:10.673Z,100447.00
2019-05-29T15:43:39.497Z,100457.00
2019-05-29T15:46:10.032Z,100457.00
2019-05-29T15:48:38.294Z,100463.00
2019-05-29T15:51:07.275Z,100466.00
2019-05-29T15:53:35.577Z,100464.00
2019-05-29T15:56:18.110Z,100471.00
2019-05-29T15:58:35.005Z,100473.00
2019-05-29T16:01:05.190Z,100476.00
2019-05-29T16:03:33.597Z,100470.00
2019-05-29T16:06:02.288Z,100481.00
2019-05-29T16:08:30.839Z,100476.00
2019-05-29T16:10:59.312Z,100475.00
2019-05-29T16:13:28.090Z,100475.00
2019-05-29T16:15:57.029Z,100486.00
2019-05-29T16:18:29.414Z,100493.00
2019-05-29T16:20:57.202Z,100489.00
2019-05-29T16:23:35.177Z,100489.00
2019-05-29T16:25:58.573Z,100485.00
2019-05-29T16:28:27.655Z,100491.00
2019-05-29T16:31:00.237Z,100492.00
2019-05-29T16:33:30.801Z,100501.00
2019-05-29T16:35:59.764Z,100503.00
2019-05-29T16:38:32.246Z,100491.00
2019-05-29T16:41:02.226Z,100491.00
2019-05-29T16:43:31.725Z,100494.00
2019-05-29T16:46:02.332Z,100497.00
2019-05-29T16:48:30.473Z,100505.00
2019-05-29T16:50:59.089Z,100494.00
2019-05-29T16:53:27.630Z,100500.00
2019-05-29T16:55:56.474Z,100508.00
2019-05-29T16:58:25.543Z,100507.00
2019-05-29T17:00:54.354Z,100517.00
2019-05-29T17:03:23.782Z,100514.00
2019-05-29T17:05:52.366Z,100522.00
2019-05-29T17:08:22.228Z,100523.00
2019-05-29T17:10:50.951Z,100519.00
2019-05-29T17:13:20.632Z,100526.00
2019-05-29T17:15:49.234Z,100531.00
2019-05-29T17:18:18.854Z,100529.00
2019-05-29T17:20:47.551Z,100540.00
2019-05-29T17:23:17.026Z,100542.00
2019-05-29T17:25:46.107Z,100540.00
2019-05-29T17:28:15.175Z,100543.00
2019-05-29T17:30:44.108Z,100544.00
2019-05-29T17:33:12.496Z,100544.00
2019-05-29T17:35:41.445Z,100552.00
2019-05-29T17:38:10.772Z,100555.00
2019-05-29T17:40:41.100Z,100553.00
2019-05-29T17:43:11.881Z,100549.00
2019-05-29T17:45:40.542Z,100549.00
2019-05-29T17:48:09.648Z,100555.00
2019-05-29T17:50:38.209Z,100559.00
2019-05-29T17:53:06.600Z,100561.00
2019-05-29T17:55:35.234Z,100567.00
2019-05-29T17:58:04.613Z,100570.00
2019-05-29T18:00:34.307Z,100576.00
2019-05-29T18:03:02.916Z,100572.00
2019-05-29T18:05:31.705Z,100582.00
2019-05-29T18:08:01.806Z,100574.00
2019-05-29T18:10:30.797Z,100588.00
2019-05-29T18:12:59.467Z,100593.00
2019-05-29T18:15:27.853Z,100592.00
2019-05-29T18:17:56.982Z,100599.00
2019-05-29T18:20:25.869Z,100604.00
2019-05-29T18:22:54.515Z,100606.00
2019-05-29T18:25:24.019Z,100612.00
2019-05-29T18:27:53.556Z,100613.00
2019-05-29T18:30:22.698Z,100615.00
2019-05-29T18:32:52.026Z,100618.00
2019-05-29T18:35:20.744Z,100624.00
2019-05-29T18:37:49.464Z,100631.00
2019-05-29T18:40:18.716Z,100635.00
2019-05-29T18:42:49.325Z,100641.00
2019-05-29T18:45:22.764Z,100648.00
2019-05-29T18:47:50.438Z,100647.00
2019-05-29T18:50:21.500Z,100650.00
2019-05-29T18:52:50.200Z,100662.00
2019-05-29T18:55:19.291Z,100664.00
2019-05-29T18:57:47.861Z,100668.00
2019-05-29T19:00:17.524Z,100674.00
2019-05-29T19:02:46.115Z,100678.00
2019-05-29T19:05:16.642Z,100682.00
2019-05-29T19:07:45.318Z,100681.00
2019-05-29T19:10:14.009Z,100686.00
2019-05-29T19:12:42.375Z,100693.00
2019-05-29T19:15:12.379Z,100695.00
2019-05-29T19:17:41.258Z,100700.00
2019-05-29T19:20:10.913Z,100695.00
2019-05-29T19:22:39.592Z,100702.00
2019-05-29T19:25:09.440Z,100700.00
2019-05-29T19:27:41.873Z,100705.00
2019-05-29T19:30:10.859Z,100700.00
2019-05-29T19:32:39.526Z,100709.00
2019-05-29T19:35:09.398Z,100713.00
2019-05-29T19:37:38.211Z,100716.00
2019-05-29T19:40:07.949Z,100715.00
2019-05-29T19:42:36.650Z,100722.00
2019-05-29T19:45:08.388Z,100724.00
2019-05-29T19:47:38.760Z,100724.00
2019-05-29T19:50:11.309Z,100729.00
2019-05-29T19:52:41.638Z,100731.00
2019-05-29T19:55:10.682Z,100735.00
2019-05-29T19:57:54.744Z,100728.00
2019-05-29T20:00:12.302Z,100740.00
2019-05-29T20:02:40.542Z,100743.00
2019-05-29T20:05:09.372Z,100752.00
2019-05-29T20:07:37.797Z,100755.00
2019-05-29T20:10:06.494Z,100754.00
2019-05-29T20:12:35.707Z,100758.00
2019-05-29T20:15:06.281Z,100751.00
2019-05-29T20:17:36.184Z,100744.00
2019-05-29T20:20:05.246Z,100748.00
2019-05-29T20:22:34.652Z,100754.00
2019-05-29T20:25:03.677Z,100755.00
2019-05-29T20:27:32.513Z,100757.00
2019-05-29T20:30:01.373Z,100757.00
2019-05-29T20:32:32.471Z,100754.00
2019-05-29T20:35:01.009Z,100766.00
2019-05-29T20:37:30.016Z,100774.00
2019-05-29T20:39:58.733Z,100771.00
2019-05-29T20:42:27.361Z,100773.00
2019-05-29T20:44:55.894Z,100780.00
2019-05-29T20:47:26.296Z,100783.00
2019-05-29T20:49:56.751Z,100780.00
2019-05-29T20:52:25.488Z,100782.00
2019-05-29T20:54:57.681Z,100783.00
2019-05-29T20:57:24.763Z,100792.00
2019-05-29T20:59:53.227Z,100793.00
2019-05-29T21:02:22.068Z,100791.00
2019-05-29T21:04:50.821Z,100791.00
2019-05-29T21:07:19.292Z,100789.00
2019-05-29T21:09:48.503Z,100790.00
2019-05-29T21:12:17.104Z,100796.00
2019-05-29T21:14:45.486Z,100789.00
2019-05-29T21:17:13.893Z,100806.00
2019-05-29T21:19:44.701Z,100813.00
2019-05-29T21:22:13.453Z,100814.00
2019-05-29T21:24:49.706Z,100817.00
2019-05-29T21:27:12.572Z,100816.00
2019-05-29T21:29:41.288Z,100822.00
2019-05-29T21:32:10.403Z,100816.00
2019-05-29T21:34:40.556Z,100829.00
2019-05-29T21:37:09.114Z,100830.00
2019-05-29T21:39:38.310Z,100836.00
2019-05-29T21:42:07.229Z,100837.00
2019-05-29T21:44:36.621Z,100839.00
2019-05-29T21:47:05.492Z,100848.00
2019-05-29T21:49:37.138Z,100846.00
2019-05-29T21:52:07.529Z,100853.00
2019-05-29T21:54:37.269Z,100851.00
2019-05-29T21:57:06.104Z,100849.00
2019-05-29T21:59:34.523Z,100851.00
2019-05-29T22:02:04.282Z,100858.00
2019-05-29T22:04:32.919Z,100861.00
2019-05-29T22:07:01.527Z,100867.00
2019-05-29T22:09:30.185Z,100876.00
2019-05-29T22:11:58.924Z,100861.00
2019-05-29T22:14:27.500Z,100866.00
2019-05-29T22:16:57.098Z,100876.00
2019-05-29T22:19:26.142Z,100871.00
2019-05-29T22:21:54.978Z,100869.00
2019-05-29T22:24:23.507Z,100862.00
2019-05-29T22:26:53.066Z,100859.00
2019-05-29T22:29:21.790Z,100859.00
2019-05-29T22:31:51.352Z,100863.00
2019-05-29T22:34:19.759Z,100864.00
2019-05-29T22:36:51.435Z,100863.00
2019-05-29T22:39:19.915Z,100866.00
2019-05-29T22:41:48.304Z,100876.00
2019-05-29T22:44:17.328Z,100877.00
2019-05-29T22:46:45.952Z,100874.00
2019-05-29T22:49:14.360Z,100873.00
2019-05-29T22:51:44.969Z,100871.00
2019-05-29T22:54:15.204Z,100871.00
2019-05-29T22:56:43.725Z,100870.00
2019-05-29T22:59:12.472Z,100871.00
2019-05-29T23:01:40.866Z,100878.00
2019-05-29T23:04:09.587Z,100876.00
2019-05-29T23:06:39.268Z,100875.00
2019-05-29T23:09:07.865Z,100870.00
2019-05-29T23:11:36.226Z,100881.00
2019-05-29T23:14:04.932Z,100877.00
2019-05-29T23:16:33.588Z,100886.00
2019-05-29T23:19:02.783Z,100892.00
2019-05-29T23:21:31.221Z,100887.00
2019-05-29T23:23:59.954Z,100879.00
2019-05-29T23:26:30.490Z,100889.00
2019-05-29T23:28:59.340Z,100888.00
2019-05-29T23:31:27.920Z,100895.00
2019-05-29T23:33:56.944Z,100890.00
2019-05-29T23:36:25.454Z,100888.00
2019-05-29T23:38:55.177Z,100884.00
2019-05-29T23:41:23.917Z,100894.00
2019-05-29T23:43:53.360Z,100892.00
2019-05-29T23:46:22.504Z,100893.00
2019-05-29T23:48:51.495Z,100888.00
2019-05-29T23:51:20.067Z,100894.00
2019-05-29T23:53:50.395Z,100903.00
2019-05-29T23:56:20.893Z,100908.00
2019-05-29T23:58:49.310Z,100922.00
